createdAt,value
2023-01-19T00:01:29.453Z,11.57
2023-01-19T00:03:56.617Z,10.47
2023-01-19T00:06:26.544Z,11.68
2023-01-19T00:08:53.748Z,12.80
2023-01-19T00:11:23.867Z,13.20
2023-01-19T00:13:51.112Z,12.77
2023-01-19T00:16:19.845Z,12.83
2023-01-19T00:18:47.096Z,11.77
2023-01-19T00:21:17.355Z,11.38
2023-01-19T00:23:47.587Z,11.68
2023-01-19T00:26:16.793Z,10.15
2023-01-19T00:28:44.676Z,10.52
2023-01-19T00:31:12.203Z,11.20
2023-01-19T00:33:39.350Z,11.20
2023-01-19T00:36:06.631Z,12.40
2023-01-19T00:38:33.627Z,14.00
2023-01-19T00:41:00.690Z,11.95
2023-01-19T00:52:07.564Z,12.38
2023-01-19T00:54:34.495Z,12.38
2023-01-19T00:57:02.175Z,11.85
2023-01-19T00:59:29.080Z,12.57
2023-01-19T01:01:56.552Z,12.32
2023-01-19T01:04:26.467Z,12.15
2023-01-19T01:06:53.554Z,12.87
2023-01-19T01:09:20.558Z,12.75
2023-01-19T01:11:47.507Z,12.63
2023-01-19T01:14:14.585Z,12.23
2023-01-19T01:16:41.994Z,12.93
2023-01-19T01:19:09.508Z,13.57
2023-01-19T01:21:37.329Z,14.43
2023-01-19T01:24:05.069Z,13.02
2023-01-19T01:26:32.066Z,12.07
2023-01-19T01:28:59.094Z,12.23
2023-01-19T01:31:27.494Z,12.15
2023-01-19T01:33:54.526Z,12.30
2023-01-19T01:36:21.906Z,12.23
2023-01-19T01:38:49.067Z,12.75
2023-01-19T01:41:16.068Z,9.35
2023-01-19T01:43:54.916Z,10.00
2023-01-19T01:46:22.045Z,10.63
2023-01-19T01:49:04.553Z,9.73
2023-01-19T01:54:28.234Z,11.77
2023-01-19T01:56:59.552Z,11.30
2023-01-19T01:59:39.368Z,11.77
2023-01-19T02:02:38.772Z,11.80
2023-01-19T02:05:33.247Z,13.47
2023-01-19T02:08:44.906Z,12.40
2023-01-19T02:11:30.698Z,13.40
2023-01-19T02:13:57.944Z,13.10
2023-01-19T02:16:25.015Z,12.80
2023-01-19T02:18:55.001Z,13.60
2023-01-19T02:21:24.682Z,13.07
2023-01-19T02:23:54.462Z,11.37
2023-01-19T02:26:29.755Z,12.30
2023-01-19T02:29:02.970Z,12.70
2023-01-19T02:31:32.205Z,12.03
2023-01-19T02:34:00.998Z,12.27
2023-01-19T02:36:46.759Z,12.27
2023-01-19T02:39:15.628Z,12.20
2023-01-19T02:41:48.118Z,12.03
2023-01-19T02:44:16.644Z,11.20
2023-01-19T02:46:44.243Z,12.07
2023-01-19T02:49:11.443Z,11.43
2023-01-19T02:51:38.395Z,13.33
2023-01-19T02:54:16.373Z,12.07
2023-01-19T02:57:03.972Z,12.33
2023-01-19T02:59:46.583Z,12.77
2023-01-19T03:05:08.533Z,10.83
2023-01-19T03:08:09.392Z,11.40
2023-01-19T03:11:08.163Z,9.67
2023-01-19T03:14:03.880Z,9.73
2023-01-19T03:16:42.224Z,11.93
2023-01-19T03:19:21.432Z,9.73
2023-01-19T03:21:53.154Z,11.23
2023-01-19T03:24:25.841Z,10.02
2023-01-19T03:27:01.070Z,9.60
2023-01-19T03:29:31.402Z,8.93
2023-01-19T03:32:01.364Z,8.53
2023-01-19T03:34:29.570Z,9.17
2023-01-19T03:37:02.224Z,8.47
2023-01-19T03:39:29.578Z,6.80
2023-01-19T03:42:08.363Z,6.97
2023-01-19T03:44:40.392Z,6.40
2023-01-19T03:47:11.004Z,5.70
2023-01-19T03:49:40.465Z,5.00
2023-01-19T03:52:07.499Z,4.10
2023-01-19T03:54:34.649Z,4.57
2023-01-19T03:57:01.863Z,3.57
2023-01-19T03:59:28.752Z,2.47
2023-01-19T04:01:55.825Z,2.25
2023-01-19T04:04:22.886Z,1.60
2023-01-19T04:06:49.823Z,1.35
2023-01-19T04:09:19.195Z,1.20
2023-01-19T04:11:46.413Z,1.00
2023-01-19T04:14:13.931Z,0.80
2023-01-19T04:16:41.049Z,0.70
2023-01-19T04:19:10.903Z,0.73
2023-01-19T04:21:38.092Z,0.60
2023-01-19T04:24:05.494Z,0.60
2023-01-19T04:26:32.547Z,0.43
2023-01-19T04:28:59.568Z,0.50
2023-01-19T04:31:26.671Z,0.40
2023-01-19T04:33:56.545Z,0.40
2023-01-19T04:36:26.084Z,0.40
2023-01-19T04:38:53.053Z,0.50
2023-01-19T04:41:20.318Z,0.60
2023-01-19T04:43:48.092Z,0.60
2023-01-19T04:46:15.199Z,0.63
2023-01-19T04:48:42.380Z,0.93
2023-01-19T04:51:09.998Z,1.50
2023-01-19T04:53:37.085Z,1.30
2023-01-19T04:56:04.417Z,1.40
2023-01-19T04:58:31.608Z,1.80
2023-01-19T05:00:58.842Z,1.20
2023-01-19T05:03:26.694Z,1.30
2023-01-19T05:05:53.920Z,1.10
2023-01-19T05:08:21.208Z,1.20
2023-01-19T05:10:48.622Z,1.25
2023-01-19T05:13:15.590Z,1.00
2023-01-19T05:15:42.668Z,1.70
2023-01-19T05:18:09.814Z,1.23
2023-01-19T05:20:36.976Z,1.37
2023-01-19T05:23:04.223Z,1.63
2023-01-19T05:25:31.498Z,1.38
2023-01-19T05:27:58.446Z,1.47
2023-01-19T05:30:25.692Z,0.95
2023-01-19T05:32:52.746Z,1.63
2023-01-19T05:35:27.755Z,1.25
2023-01-19T05:37:58.794Z,0.80
2023-01-19T05:40:25.793Z,0.90
2023-01-19T05:42:56.345Z,0.82
2023-01-19T05:45:23.330Z,0.70
2023-01-19T05:47:51.023Z,0.80
2023-01-19T05:50:18.058Z,0.60
2023-01-19T05:52:45.172Z,0.90
2023-01-19T05:55:12.197Z,1.00
2023-01-19T05:57:39.117Z,0.83
2023-01-19T06:00:06.710Z,0.80
2023-01-19T06:02:36.336Z,0.90
2023-01-19T06:05:04.566Z,0.73
2023-01-19T06:07:34.684Z,0.93
2023-01-19T06:10:01.815Z,0.73
2023-01-19T06:12:28.837Z,0.75
2023-01-19T06:14:56.603Z,0.50
2023-01-19T06:17:23.884Z,0.90
2023-01-19T06:19:50.870Z,0.95
2023-01-19T06:22:18.016Z,0.70
2023-01-19T06:24:45.038Z,0.80
2023-01-19T06:27:14.179Z,0.50
2023-01-19T06:29:41.198Z,0.63
2023-01-19T06:32:08.336Z,0.60
2023-01-19T06:34:35.319Z,1.58
2023-01-19T06:37:02.430Z,0.90
2023-01-19T06:39:29.549Z,1.00
2023-01-19T06:41:56.703Z,0.77
2023-01-19T06:44:25.879Z,0.80
2023-01-19T06:47:15.251Z,0.90
2023-01-19T06:49:43.314Z,1.13
2023-01-19T06:52:13.494Z,0.70
2023-01-19T06:54:40.464Z,1.35
2023-01-19T06:57:07.476Z,1.00
2023-01-19T06:59:34.490Z,1.00
2023-01-19T07:02:25.824Z,2.70
2023-01-19T07:04:50.585Z,1.20
2023-01-19T07:07:17.818Z,1.50
2023-01-19T07:09:47.140Z,1.50
2023-01-19T07:12:15.491Z,1.40
2023-01-19T07:14:43.025Z,1.27
2023-01-19T07:17:10.902Z,1.23
2023-01-19T07:19:38.158Z,1.33
2023-01-19T07:22:05.228Z,1.55
2023-01-19T07:24:33.754Z,1.45
2023-01-19T07:27:00.891Z,1.63
2023-01-19T07:29:27.880Z,1.92
2023-01-19T07:31:55.401Z,2.03
2023-01-19T07:34:22.953Z,2.00
2023-01-19T07:36:50.223Z,1.70
2023-01-19T07:39:17.504Z,1.55
2023-01-19T07:41:44.531Z,1.80
2023-01-19T07:44:11.691Z,1.80
2023-01-19T07:46:38.854Z,2.23
2023-01-19T07:49:05.872Z,2.93
2023-01-19T07:51:32.887Z,2.67
2023-01-19T07:54:00.055Z,3.27
2023-01-19T07:56:30.782Z,3.58
2023-01-19T07:58:58.797Z,3.35
2023-01-19T08:01:25.921Z,2.77
2023-01-19T08:03:56.965Z,3.07
2023-01-19T08:06:33.799Z,2.63
2023-01-19T08:09:01.186Z,2.93
2023-01-19T08:11:28.567Z,3.37
2023-01-19T08:13:58.077Z,3.47
2023-01-19T08:16:25.251Z,4.00
2023-01-19T08:18:55.522Z,3.70
2023-01-19T08:21:22.681Z,3.65
2023-01-19T08:23:57.250Z,3.88
2023-01-19T08:26:32.172Z,3.40
2023-01-19T08:29:02.327Z,3.20
2023-01-19T08:31:29.980Z,3.47
2023-01-19T08:33:57.558Z,3.97
2023-01-19T08:36:25.173Z,4.28
2023-01-19T08:38:54.241Z,4.25
2023-01-19T08:41:24.695Z,3.70
2023-01-19T08:43:51.746Z,3.97
2023-01-19T08:46:21.480Z,3.65
2023-01-19T08:48:49.444Z,3.83
2023-01-19T08:51:17.034Z,4.13
2023-01-19T08:53:44.341Z,3.55
2023-01-19T08:56:13.940Z,3.60
2023-01-19T08:58:43.027Z,3.10
2023-01-19T09:01:11.106Z,3.35
2023-01-19T09:03:38.145Z,3.45
2023-01-19T09:06:09.966Z,5.40
2023-01-19T09:08:37.328Z,4.90
2023-01-19T09:11:05.285Z,5.70
2023-01-19T09:13:32.376Z,5.05
2023-01-19T09:16:03.900Z,6.47
2023-01-19T09:18:31.458Z,5.37
2023-01-19T09:20:58.594Z,6.43
2023-01-19T09:23:26.155Z,5.85
2023-01-19T09:25:58.627Z,6.55
2023-01-19T09:28:26.259Z,8.25
2023-01-19T09:30:55.047Z,6.65
2023-01-19T09:33:25.348Z,6.05
2023-01-19T09:35:54.486Z,6.25
2023-01-19T09:38:23.425Z,6.70
2023-01-19T09:40:53.446Z,7.28
2023-01-19T09:43:47.963Z,7.03
2023-01-19T09:46:24.450Z,5.95
2023-01-19T09:48:54.286Z,6.13
2023-01-19T09:51:32.897Z,5.55
2023-01-19T09:54:21.324Z,6.40
2023-01-19T09:56:52.863Z,6.13
2023-01-19T09:59:30.956Z,5.60
2023-01-19T10:02:35.212Z,5.53
2023-01-19T10:05:23.654Z,4.90
2023-01-19T10:08:06.181Z,4.15
2023-01-19T10:10:34.550Z,4.80
2023-01-19T10:13:19.320Z,3.60
2023-01-19T10:16:14.599Z,3.20
2023-01-19T10:18:51.717Z,2.75
2023-01-19T10:21:32.102Z,1.90
2023-01-19T10:24:08.738Z,1.87
2023-01-19T10:26:55.597Z,2.55
2023-01-19T10:29:30.791Z,2.17
2023-01-19T10:32:20.084Z,1.23
2023-01-19T10:34:48.956Z,1.95
2023-01-19T10:37:37.890Z,1.80
2023-01-19T10:40:11.110Z,1.63
2023-01-19T10:42:41.244Z,1.25
2023-01-19T10:45:30.241Z,1.20
2023-01-19T10:48:06.730Z,1.48
2023-01-19T10:50:37.207Z,1.10
2023-01-19T10:53:08.345Z,1.63
2023-01-19T10:55:40.197Z,2.63
2023-01-19T10:58:30.471Z,3.30
2023-01-19T11:01:15.661Z,4.40
2023-01-19T11:03:45.880Z,4.65
2023-01-19T11:06:16.281Z,5.72
2023-01-19T11:08:45.348Z,4.85
2023-01-19T11:11:12.963Z,5.15
2023-01-19T11:13:41.487Z,5.47
2023-01-19T11:16:19.262Z,5.72
2023-01-19T11:18:47.305Z,5.95
2023-01-19T11:21:17.210Z,6.68
2023-01-19T11:23:51.313Z,6.68
2023-01-19T11:26:49.346Z,7.25
2023-01-19T11:29:22.987Z,5.65
2023-01-19T11:31:50.776Z,5.78
2023-01-19T11:34:31.860Z,5.13
2023-01-19T11:37:23.820Z,5.15
2023-01-19T11:39:56.570Z,5.20
2023-01-19T11:42:28.272Z,5.75
2023-01-19T11:44:58.482Z,6.38
2023-01-19T11:47:33.082Z,6.45
2023-01-19T11:50:06.579Z,6.63
2023-01-19T11:52:33.449Z,7.10
2023-01-19T11:55:19.884Z,7.07
2023-01-19T11:57:50.024Z,7.53
2023-01-19T12:00:34.402Z,8.43
2023-01-19T12:03:30.574Z,8.23
2023-01-19T12:06:07.581Z,7.25
2023-01-19T12:08:46.984Z,6.82
2023-01-19T12:11:21.530Z,6.40
2023-01-19T12:13:53.735Z,7.82
2023-01-19T12:16:27.286Z,9.85
2023-01-19T12:19:10.903Z,9.63
2023-01-19T12:21:38.566Z,10.48
2023-01-19T12:24:23.027Z,10.18
2023-01-19T12:27:00.937Z,9.07
2023-01-19T12:29:34.911Z,9.23
2023-01-19T12:32:16.869Z,9.18
2023-01-19T12:34:48.455Z,10.02
2023-01-19T12:37:40.861Z,8.23
2023-01-19T12:40:27.618Z,9.57
2023-01-19T12:43:04.319Z,8.50
2023-01-19T12:45:36.025Z,8.82
2023-01-19T12:48:04.309Z,7.18
2023-01-19T12:50:38.945Z,6.60
2023-01-19T12:53:19.163Z,6.60
2023-01-19T12:55:57.543Z,6.05
2023-01-19T12:58:25.745Z,5.40
2023-01-19T13:01:14.926Z,5.95
2023-01-19T13:03:44.228Z,4.95
2023-01-19T13:06:11.223Z,4.57
2023-01-19T13:09:00.499Z,4.20
2023-01-19T13:11:32.669Z,3.58
2023-01-19T13:14:01.120Z,3.30
2023-01-19T13:16:28.037Z,3.08
2023-01-19T13:19:06.272Z,3.53
2023-01-19T13:21:47.752Z,4.05
2023-01-19T13:24:17.703Z,4.32
2023-01-19T13:26:51.355Z,4.88
2023-01-19T13:29:27.355Z,3.30
2023-01-19T13:32:02.337Z,4.38
2023-01-19T13:34:41.218Z,3.85
2023-01-19T13:37:18.331Z,3.83
2023-01-19T13:39:50.133Z,3.10
2023-01-19T13:42:29.670Z,2.05
2023-01-19T13:45:01.102Z,1.90
2023-01-19T13:47:46.787Z,2.03
2023-01-19T13:50:29.631Z,1.38
2023-01-19T13:52:59.048Z,1.77
2023-01-19T13:55:28.196Z,1.23
2023-01-19T13:57:56.111Z,1.02
2023-01-19T14:00:28.695Z,0.60
2023-01-19T14:02:59.543Z,0.60
2023-01-19T14:05:41.393Z,0.50
2023-01-19T14:08:08.660Z,0.32
2023-01-19T14:10:38.170Z,0.40
2023-01-19T14:13:26.825Z,0.30
2023-01-19T14:15:57.889Z,0.77
2023-01-19T14:18:32.663Z,0.50
2023-01-19T14:21:12.055Z,0.40
2023-01-19T14:24:07.191Z,0.50
2023-01-19T14:26:49.417Z,0.30
2023-01-19T14:29:24.344Z,0.30
2023-01-19T14:32:11.268Z,0.32
2023-01-19T14:34:44.355Z,0.50
2023-01-19T14:37:29.914Z,0.50
2023-01-19T14:40:11.180Z,0.40
2023-01-19T14:42:39.671Z,0.40
2023-01-19T14:45:29.131Z,0.50
2023-01-19T14:48:18.421Z,0.40
2023-01-19T14:51:02.397Z,0.30
2023-01-19T14:53:36.842Z,0.40
2023-01-19T14:56:05.813Z,0.30
2023-01-19T14:58:34.675Z,0.45
2023-01-19T15:01:02.176Z,0.20
2023-01-19T15:03:44.259Z,0.40
2023-01-19T15:06:20.884Z,0.50
2023-01-19T15:08:50.166Z,0.30
2023-01-19T15:11:34.729Z,0.40
2023-01-19T15:14:03.113Z,0.70
2023-01-19T15:16:33.194Z,0.40
2023-01-19T15:19:00.928Z,0.40
2023-01-19T15:21:27.972Z,0.40
2023-01-19T15:23:58.700Z,0.50
2023-01-19T15:26:26.747Z,0.20
2023-01-19T15:28:53.818Z,0.43
2023-01-19T15:31:23.930Z,0.25
2023-01-19T15:33:51.473Z,0.30
2023-01-19T15:36:21.334Z,0.35
2023-01-19T15:38:51.221Z,0.40
2023-01-19T15:41:27.286Z,0.32
2023-01-19T15:43:54.502Z,0.40
2023-01-19T15:46:24.235Z,0.70
2023-01-19T15:48:51.928Z,0.60
2023-01-19T15:51:26.334Z,0.65
2023-01-19T15:53:56.805Z,1.10
2023-01-19T15:56:31.620Z,1.65
2023-01-19T15:58:59.079Z,1.70
2023-01-19T16:01:31.627Z,1.50
2023-01-19T16:04:04.606Z,1.52
2023-01-19T16:06:32.655Z,1.70
2023-01-19T16:09:02.035Z,3.33
2023-01-19T16:11:33.797Z,4.55
2023-01-19T16:14:01.666Z,4.68
2023-01-19T16:16:28.767Z,6.90
2023-01-19T16:18:56.346Z,6.00
2023-01-19T16:21:26.431Z,5.72
2023-01-19T16:23:56.336Z,7.88
2023-01-19T16:26:33.177Z,9.57
2023-01-19T16:29:10.989Z,8.38
2023-01-19T16:31:39.579Z,8.38
2023-01-19T16:34:07.029Z,7.53
2023-01-19T16:36:37.080Z,5.85
2023-01-19T16:39:07.840Z,7.22
2023-01-19T16:41:35.852Z,6.18
2023-01-19T16:44:03.161Z,6.85
2023-01-19T16:46:35.840Z,5.70
2023-01-19T16:49:15.098Z,4.93
2023-01-19T16:51:42.588Z,3.88
2023-01-19T16:54:14.815Z,3.97
2023-01-19T16:56:42.409Z,3.58
2023-01-19T16:59:14.370Z,3.10
2023-01-19T17:01:41.916Z,3.50
2023-01-19T17:04:09.069Z,3.25
2023-01-19T17:06:36.061Z,3.33
2023-01-19T17:09:03.645Z,3.35
2023-01-19T17:11:31.801Z,4.55
2023-01-19T17:14:00.866Z,4.43
2023-01-19T17:16:29.960Z,4.32
2023-01-19T17:18:58.651Z,5.37
2023-01-19T17:21:26.170Z,8.05
2023-01-19T17:23:55.057Z,8.55
2023-01-19T17:26:25.360Z,9.13
2023-01-19T17:28:53.690Z,10.45
2023-01-19T17:31:22.451Z,10.23
2023-01-19T17:33:51.042Z,10.97
2023-01-19T17:36:24.627Z,12.23
2023-01-19T17:38:53.522Z,13.33
2023-01-19T17:41:23.085Z,11.10
2023-01-19T17:43:51.308Z,12.98
2023-01-19T17:46:20.757Z,11.98
2023-01-19T17:48:59.593Z,12.77
2023-01-19T17:51:27.301Z,13.00
2023-01-19T17:53:58.681Z,10.90
2023-01-19T17:56:30.020Z,10.10
2023-01-19T17:58:58.224Z,11.30
2023-01-19T18:01:28.723Z,11.93
2023-01-19T18:04:00.720Z,12.38
2023-01-19T18:06:27.887Z,12.85
2023-01-19T18:08:54.873Z,11.87
2023-01-19T18:11:22.016Z,12.38
2023-01-19T18:13:50.716Z,11.43
2023-01-19T18:16:22.181Z,10.57
2023-01-19T18:18:49.990Z,10.47
2023-01-19T18:21:18.359Z,8.43
2023-01-19T18:23:46.120Z,10.70
2023-01-19T18:26:18.366Z,9.18
2023-01-19T18:28:45.450Z,9.20
2023-01-19T18:31:15.401Z,8.85
2023-01-19T18:33:42.643Z,9.38
2023-01-19T18:36:10.095Z,8.07
2023-01-19T18:38:38.067Z,9.43
2023-01-19T18:41:13.809Z,10.93
2023-01-19T18:43:40.825Z,11.27
2023-01-19T18:46:08.266Z,10.93
2023-01-19T18:48:36.584Z,13.43
2023-01-19T18:51:08.927Z,12.50
2023-01-19T18:56:03.423Z,11.60
2023-01-19T18:58:32.617Z,11.10
2023-01-19T19:01:00.930Z,12.32
2023-01-19T19:03:28.400Z,13.98
2023-01-19T19:05:55.932Z,14.93
2023-01-19T19:08:23.104Z,13.75
2023-01-19T19:10:50.129Z,15.88
2023-01-19T19:13:17.763Z,15.05
2023-01-19T19:15:44.875Z,15.33
2023-01-19T19:18:16.446Z,14.95
2023-01-19T19:20:43.786Z,16.60
2023-01-19T19:23:12.041Z,16.00
2023-01-19T19:25:39.451Z,17.50
2023-01-19T19:28:06.784Z,16.70
2023-01-19T19:30:35.673Z,17.75
2023-01-19T19:33:03.203Z,18.48
2023-01-19T19:35:30.314Z,16.92
2023-01-19T19:37:57.987Z,16.58
2023-01-19T19:40:26.503Z,14.75
2023-01-19T19:42:58.619Z,15.38
2023-01-19T19:45:25.835Z,19.42
2023-01-19T19:47:52.820Z,19.65
2023-01-19T19:50:20.016Z,18.60
2023-01-19T19:52:47.091Z,18.15
2023-01-19T19:55:14.272Z,19.00
2023-01-19T19:57:41.339Z,19.50
2023-01-19T20:00:08.959Z,18.08
2023-01-19T20:02:38.620Z,17.48
2023-01-19T20:05:06.284Z,17.50
2023-01-19T20:07:33.789Z,17.42
2023-01-19T20:10:00.982Z,17.92
2023-01-19T20:12:27.971Z,19.02
2023-01-19T20:14:55.182Z,17.85
2023-01-19T20:17:23.412Z,20.45
2023-01-19T20:19:50.581Z,20.85
2023-01-19T20:22:17.633Z,22.42
2023-01-19T20:24:44.920Z,21.33
2023-01-19T20:27:12.002Z,21.67
2023-01-19T20:29:39.058Z,20.17
2023-01-19T20:32:06.277Z,18.95
2023-01-19T20:34:35.685Z,18.20
2023-01-19T20:37:04.632Z,17.90
2023-01-19T20:39:33.626Z,19.13
2023-01-19T20:42:01.231Z,20.90
2023-01-19T20:44:43.728Z,20.93
2023-01-19T20:47:10.870Z,19.73
2023-01-19T20:49:40.806Z,20.90
2023-01-19T20:52:08.232Z,21.13
2023-01-19T20:54:35.530Z,20.05
2023-01-19T20:57:02.704Z,17.50
2023-01-19T20:59:29.737Z,20.53
2023-01-19T21:01:56.948Z,17.17
2023-01-19T21:04:26.887Z,17.77
2023-01-19T21:06:54.574Z,17.10
2023-01-19T21:09:23.139Z,15.10
2023-01-19T21:11:53.327Z,16.20
2023-01-19T21:14:20.502Z,19.20
2023-01-19T21:16:47.645Z,17.30
2023-01-19T21:19:14.866Z,19.93
2023-01-19T21:21:41.990Z,16.90
2023-01-19T21:24:11.014Z,15.30
2023-01-19T21:26:38.502Z,16.83
2023-01-19T21:29:05.718Z,15.33
2023-01-19T21:31:35.509Z,14.07
2023-01-19T21:34:05.679Z,14.67
2023-01-19T21:36:33.008Z,14.27
2023-01-19T21:39:03.727Z,12.33
2023-01-19T21:41:30.677Z,10.37
2023-01-19T21:43:58.688Z,11.43
2023-01-19T21:46:29.214Z,9.33
2023-01-19T21:48:58.320Z,9.20
2023-01-19T21:51:25.701Z,11.30
2023-01-19T21:53:54.525Z,12.17
2023-01-19T21:56:25.072Z,11.87
2023-01-19T21:58:52.206Z,13.17
2023-01-19T22:01:19.586Z,11.20
2023-01-19T22:03:46.701Z,12.93
2023-01-19T22:06:15.169Z,13.70
2023-01-19T22:08:42.583Z,12.20
2023-01-19T22:11:11.870Z,16.23
2023-01-19T22:13:40.096Z,16.02
2023-01-19T22:16:13.704Z,15.43
2023-01-19T22:18:43.386Z,14.88
2023-01-19T22:21:15.955Z,13.85
2023-01-19T22:23:43.696Z,14.80
2023-01-19T22:26:11.950Z,14.38
2023-01-19T22:28:39.097Z,13.50
2023-01-19T22:31:14.681Z,12.80
2023-01-19T22:33:42.495Z,13.15
2023-01-19T22:36:17.295Z,12.88
2023-01-19T22:38:44.797Z,13.07
2023-01-19T22:41:16.581Z,14.13
2023-01-19T22:43:44.987Z,13.82
2023-01-19T22:46:13.921Z,15.73
2023-01-19T22:48:40.831Z,13.27
2023-01-19T22:51:07.972Z,14.32
2023-01-19T22:53:34.973Z,13.52
2023-01-19T22:56:17.091Z,14.07
2023-01-19T22:58:45.365Z,17.45
2023-01-19T23:01:18.385Z,18.17
2023-01-19T23:03:45.626Z,16.43
2023-01-19T23:06:15.293Z,15.83
2023-01-19T23:08:43.118Z,13.43
2023-01-19T23:11:16.091Z,12.80
2023-01-19T23:13:43.665Z,16.03
2023-01-19T23:16:13.584Z,13.60
2023-01-19T23:18:41.458Z,13.03
2023-01-19T23:21:19.108Z,10.73
2023-01-19T23:23:46.567Z,11.00
2023-01-19T23:26:16.230Z,10.10
2023-01-19T23:28:44.177Z,11.10
2023-01-19T23:31:14.371Z,9.80
2023-01-19T23:33:42.032Z,9.20
2023-01-19T23:36:09.170Z,9.13
2023-01-19T23:38:36.305Z,9.13
2023-01-19T23:41:03.573Z,7.37
2023-01-19T23:43:30.982Z,8.83
2023-01-19T23:46:03.425Z,8.57
2023-01-19T23:48:30.438Z,6.90
2023-01-19T23:50:57.543Z,6.83
2023-01-19T23:53:24.584Z,6.47
2023-01-19T23:55:51.633Z,6.77
2023-01-19T23:58:18.754Z,6.07
